Home   Weather   USA   Time   Past weeks
Flag for USA

Past Weather in Time, Illinois, USA — Yesterday and Last 2 Weeks

Currently: 71 °F. Sunny. (Weather station: Pittsfield Penstone Municipal Airport, USA). See more current weather

Past Weather in Time — Graph

°F

Time Temperature Yesterday

Maximum temperature yesterday: 72 °F (at 1:15 am)
Minimum temperature yesterday: 53 °F (at 11:55 pm)
Average temperature yesterday: 67 °F

High & Low Weather Summary for the Past Weeks

 TemperatureHumidityPressure
High97 °F (Jun 18, 4:15 pm)100% (Jun 7, 10:15 am)30.14 "Hg (Jun 7, 10:15 am)
Low48 °F (Jun 22, 5:35 am)33% (Jun 13, 3:35 pm)29.56 "Hg (Jun 20, 11:15 pm)
Average77 °F72%29.93 "Hg
* Reported Jun 7 10:15 am — Jun 22 10:35 am, Time. Weather by CustomWeather, © 2021

Note: Actual official high and low records may vary slightly from our data, if they occured in-between our weather recording intervals... More about our weather records

Time Weather History for the Previous 24 Hours

Scroll right to see more
 ConditionsComfort  
Time TempWeatherWind HumidityBarometerVisibility
10:35 am
Tue, Jun 22
70 °FSunny.3 mph38%30.08 "Hg10 mi
10:15 am70 °FSunny.6 mph42%30.08 "Hg10 mi
9:55 am69 °FSunny.7 mph45%30.08 "Hg10 mi
9:35 am69 °FSunny.7 mph45%30.09 "Hg10 mi
9:15 am68 °FSunny.8 mph50%30.09 "Hg10 mi
8:55 am66 °FSunny.8 mph52%30.08 "Hg10 mi
8:35 am65 °FSunny.6 mph57%30.08 "Hg10 mi
8:15 am64 °FSunny.7 mph62%30.07 "Hg10 mi
7:55 am61 °FSunny.3 mph73%30.07 "Hg10 mi
7:35 am59 °FSunny.3 mph77%30.07 "Hg10 mi
6:55 am54 °FSunny.No wind86%30.05 "Hg10 mi
6:35 am51 °FSunny.No wind97%30.05 "Hg10 mi
6:15 am50 °FSunny.3 mph95%30.05 "Hg10 mi
5:55 am48 °FSunny.No wind99%30.04 "Hg10 mi
5:35 am48 °FSunny.5 mph100%30.03 "Hg10 mi
5:15 am49 °FClear.3 mph97%30.03 "Hg10 mi
4:55 am49 °FClear.3 mph99%30.03 "Hg10 mi
4:35 am49 °FClear.No wind99%30.02 "Hg10 mi
4:15 am49 °FClear.3 mph99%30.01 "Hg10 mi
3:55 am50 °FClear.No wind97%30.01 "Hg10 mi
3:35 am49 °FClear.No wind100%30.01 "Hg10 mi
2:35 am49 °FClear.3 mph98%30.01 "Hg10 mi
2:15 am51 °FClear.No wind99%30.01 "Hg10 mi
1:55 am51 °FClear.No wind100%30.01 "Hg10 mi
1:35 am52 °FClear.No wind98%30.02 "Hg10 mi
1:15 am51 °FClear.No wind100%30.02 "Hg10 mi
12:55 am52 °FClear.No wind97%30.02 "Hg10 mi
12:35 am52 °FClear.No wind97%30.02 "Hg10 mi
12:15 am53 °FClear.No wind97%30.03 "Hg10 mi
11:55 pm
Mon, Jun 21
53 °FClear.No wind93%30.03 "Hg10 mi
11:35 pm54 °FClear.No wind91%30.02 "Hg10 mi
11:15 pm55 °FClear.No wind82%30.02 "Hg10 mi
10:55 pm55 °FClear.No wind82%30.01 "Hg10 mi
10:35 pm56 °FClear.3 mph78%30.01 "Hg10 mi
10:15 pm60 °FClear.No wind67%30.01 "Hg10 mi
9:55 pm61 °FClear.No wind65%30.00 "Hg10 mi
9:35 pm61 °FClear.No wind64%30.00 "Hg10 mi
8:55 pm61 °FClear.6 mph65%29.97 "Hg10 mi
8:35 pm63 °FClear.6 mph60%29.97 "Hg10 mi
8:15 pm65 °FSunny.8 mph54%29.96 "Hg10 mi
7:55 pm67 °FScattered clouds.9 mph50%29.96 "Hg10 mi
7:15 pm67 °FPartly sunny.10 mph48%29.94 "Hg10 mi
6:55 pm71 °FPartly sunny.15 mph43%29.93 "Hg10 mi
6:35 pm71 °FSunny.17 mph42%29.93 "Hg10 mi
6:15 pm71 °FSunny.18 mph40%29.92 "Hg10 mi
5:55 pm72 °FSunny.14 mph41%29.91 "Hg10 mi
5:35 pm71 °FScattered clouds.17 mph42%29.92 "Hg10 mi
5:15 pm72 °FPartly sunny.21 mph42%29.92 "Hg10 mi
4:55 pm71 °FScattered clouds.17 mph43%29.93 "Hg10 mi
4:35 pm70 °FPartly sunny.14 mph45%29.92 "Hg10 mi
4:15 pm72 °FScattered clouds.17 mph46%29.92 "Hg10 mi
3:55 pm71 °FScattered clouds.13 mph46%29.92 "Hg10 mi
3:35 pm70 °FScattered clouds.15 mph49%29.91 "Hg10 mi
3:15 pm71 °FScattered clouds.17 mph48%29.91 "Hg10 mi
2:55 pm70 °FBroken clouds.12 mph51%29.90 "Hg10 mi
2:35 pm70 °FScattered clouds.13 mph54%29.90 "Hg10 mi
2:15 pm70 °FScattered clouds.16 mph58%29.90 "Hg10 mi
1:55 pm70 °FBroken clouds.14 mph59%29.89 "Hg10 mi
1:35 pm68 °FScattered clouds.9 mph64%29.89 "Hg10 mi
1:15 pm68 °FMore clouds than sun.13 mph64%29.91 "Hg10 mi
12:55 pm67 °FCloudy.10 mph68%29.91 "Hg10 mi
12:35 pm68 °FBroken clouds.9 mph66%29.91 "Hg10 mi
12:15 pm67 °FPartly sunny.12 mph67%29.92 "Hg10 mi
11:55 am68 °FBroken clouds.12 mph69%29.92 "Hg10 mi
11:35 am67 °FBroken clouds.9 mph72%29.91 "Hg10 mi
Weather by CustomWeather, © 2021

See weather overview